Latest Weather Observations for Marrangaroo (Defence)

IDN60801

Issued at 5:02 pm EST Saturday 22 September 2018 (issued every 10 minutes, with the page automatically refreshed every 10 minutes)

About weather observations | Map of weather stations | Latest weather observations for NSW | Other Formats
Station Details ID: 063308 Name: MARRANGAROO (DEFENCE) Lat: -33.43 Lon: 150.13 Height: 955.0 m
Data from the previous 72 hours. | See also: Recent months at Marrangaroo (Defence)
Date/Time
EST
Temp
°C
App
Temp
°C
Dew
Point
°C
Rel
Hum
%
Delta-T
°C
Wind Press
QNH
hPa
Press
MSL
hPa
Rain since
9am
mm
Dir  Spd
km/h
Gust
km/h
Spd
kts
Gust
kts
22/05:00pm 14.8 11.8 0.6 38 6.4 W 6 11 3 6 - - 0.0
22/04:30pm 15.3 11.5 -0.9 33 7.1 W 9 17 5 9 - - 0.0
22/04:00pm 16.2 12.3 -1.8 29 7.8 W 9 15 5 8 - - 0.0
22/03:30pm 16.1 11.9 -0.6 32 7.4 WSW 11 17 6 9 - - 0.0
22/03:00pm 16.9 13.5 1.8 36 7.1 WNW 9 24 5 13 - - 0.0
22/02:30pm 19.4 15.2 1.9 31 8.4 NW 13 24 7 13 - - 0.0
22/02:00pm 17.9 14.0 1.0 32 7.9 W 11 20 6 11 - - 0.0
22/01:30pm 17.7 14.1 0.8 32 7.8 WSW 9 20 5 11 - - 0.0
22/01:00pm 16.2 11.8 0.3 34 7.2 W 13 22 7 12 - - 0.0
22/12:30pm 16.6 13.1 1.1 35 7.2 WSW 9 17 5 9 - - 0.0
22/12:00pm 15.3 11.2 2.5 42 6.0 SW 13 20 7 11 - - 0.0
22/11:30am 16.6 13.5 1.5 36 7.1 NW 7 13 4 7 - - 0.0
22/11:00am 16.5 12.9 0.6 34 7.3 NW 9 19 5 10 - - 0.0
22/10:30am 16.0 12.7 0.2 34 7.1 W 7 13 4 7 - - 0.0
22/10:00am 15.6 12.3 0.2 35 6.9 NW 7 11 4 6 - - 0.0
22/09:30am 14.9 12.2 0.0 36 6.6 W 4 11 2 6 - - 0.0
22/09:00am 13.0 11.0 2.3 48 4.9 SW 2 6 1 3 - - 0.0
22/08:30am 10.7 9.4 4.2 64 3.1 CALM 0 0 0 0 - - 0.0
22/08:00am 6.0 4.5 2.8 80 1.4 CALM 0 0 0 0 - - 0.0
22/07:30am 3.1 1.4 1.9 92 0.5 CALM 0 0 0 0 - - 0.0
22/07:00am -0.3 -2.4 -0.6 98 0.1 CALM 0 0 0 0 - - 0.0
22/06:30am -2.6 -5.0 -3.1 96 0.1 CALM 0 0 0 0 - - 0.0
22/06:00am -3.2 -5.7 -3.7 96 0.0 CALM 0 0 0 0 - - 0.0
22/05:30am -2.9 -5.3 -3.4 96 0.0 CALM 0 0 0 0 - - 0.0
22/05:00am -2.8 -5.2 -3.3 96 0.0 CALM 0 0 0 0 - - 0.0
22/04:30am -2.9 -5.3 -3.4 96 0.0 CALM 0 0 0 0 - - 0.0
22/04:00am -2.5 -4.9 -3.0 96 0.1 CALM 0 0 0 0 - - 0.0
22/03:30am -2.4 -4.8 -2.9 96 0.1 CALM 0 0 0 0 - - 0.0
22/03:00am -2.4 -4.8 -3.1 95 0.1 CALM 0 0 0 0 - - 0.0
22/02:30am -2.0 -4.3 -2.7 95 0.2 CALM 0 0 0 0 - - 0.0
22/02:00am -1.8 -4.1 -2.6 94 0.2 CALM 0 0 0 0 - - 0.0
22/01:30am -1.6 -3.9 -2.6 93 0.3 CALM 0 0 0 0 - - 0.0
22/01:00am -1.3 -3.6 -2.4 92 0.3 CALM 0 0 0 0 - - 0.0
22/12:30am -0.9 -3.2 -2.0 92 0.4 CALM 0 0 0 0 - - 0.0
22/12:00am -0.4 -2.7 -2.0 89 0.6 CALM 0 2 0 1 - - 0.0
 
Date/Time
EST
Temp
°C
App
Temp
°C
Dew
Point
°C
Rel
Hum
%
Delta-T
°C
Wind Press
QNH
hPa
Press
MSL
hPa
Rain since
9am
mm
Dir  Spd
km/h
Gust
km/h
Spd
kts
Gust
kts
21/11:30pm 0.1 -2.1 -1.6 88 0.6 CALM 0 0 0 0 - - 0.0
21/11:00pm 0.8 -1.4 -1.4 85 0.9 CALM 0 4 0 2 - - 0.0
21/10:30pm 1.3 -0.9 -1.3 83 1.0 CALM 0 0 0 0 - - 0.0
21/10:00pm 2.2 -0.3 -1.1 79 1.3 E 2 2 1 1 - - 0.0
21/09:30pm 2.9 0.8 -1.1 75 1.5 CALM 0 0 0 0 - - 0.0
21/09:00pm 3.8 1.8 -0.2 75 1.6 CALM 0 0 0 0 - - 0.0
21/08:30pm 4.1 2.0 -1.1 69 2.0 CALM 0 2 0 1 - - 0.0
21/08:00pm 5.7 2.8 -1.0 62 2.7 E 4 6 2 3 - - 0.0
21/07:30pm 7.2 4.3 -1.0 56 3.3 E 4 7 2 4 - - 0.0
21/07:00pm 7.2 4.2 -1.5 54 3.5 E 4 6 2 3 - - 0.0
21/06:30pm 8.5 6.1 -0.5 53 3.7 WSW 2 4 1 2 - - 0.0
21/06:00pm 10.9 8.6 -2.1 40 5.3 CALM 0 0 0 0 - - 0.0
21/05:30pm 14.6 11.5 -2.3 31 7.2 W 4 9 2 5 - - 0.0
21/05:00pm 15.7 11.8 -4.2 25 8.2 WSW 7 13 4 7 - - 0.0
21/04:30pm 16.7 12.6 -7.0 19 9.3 SW 7 13 4 7 - - 0.0
21/04:00pm 17.1 12.6 -6.7 19 9.4 WSW 9 15 5 8 - - 0.0
21/03:30pm 17.3 13.0 -4.6 22 9.1 WSW 9 17 5 9 - - 0.0
21/03:00pm 17.3 13.6 -2.9 25 8.7 SW 7 11 4 6 - - 0.0
21/02:30pm 17.7 13.5 -3.7 23 9.1 W 9 15 5 8 - - 0.0
21/02:00pm 17.0 13.0 -7.5 18 9.5 NNW 6 11 3 6 - - 0.0
21/01:30pm 17.3 13.7 -7.2 18 9.6 WNW 4 9 2 5 - - 0.0
21/01:00pm 16.7 12.1 -7.7 18 9.4 W 9 15 5 8 - - 0.0
21/12:30pm 16.8 13.0 -3.9 24 8.7 WNW 7 13 4 7 - - 0.0
21/12:00pm 15.5 11.8 -2.9 28 7.8 W 7 15 4 8 - - 0.0
21/11:30am 14.6 10.9 -3.2 29 7.4 W 7 11 4 6 - - 0.0
21/11:00am 14.5 11.6 -0.8 35 6.7 SW 4 11 2 6 - - 0.0
21/10:30am 13.2 10.2 -1.9 35 6.4 W 4 9 2 5 - - 0.0
21/10:00am 12.0 8.9 -2.6 36 6.0 NW 4 6 2 3 - - 0.0
21/09:30am 11.0 8.1 -1.4 42 5.2 W 4 7 2 4 - - 0.0
21/09:00am 9.7 7.2 -0.8 48 4.4 S 2 6 1 3 - - 0.0
21/08:30am 8.6 6.4 0.8 58 3.3 NW 2 6 1 3 - - 0.0
21/08:00am 4.5 2.6 0.6 76 1.6 CALM 0 0 0 0 - - 0.0
21/07:30am 0.6 -1.4 -0.4 93 0.4 CALM 0 0 0 0 - - 0.0
21/07:00am -2.4 -4.8 -2.9 96 0.1 CALM 0 0 0 0 - - 0.0
21/06:30am -4.8 -7.5 -5.6 94 0.1 CALM 0 0 0 0 - - 0.0
21/06:00am -4.9 -7.6 -5.7 94 0.1 CALM 0 0 0 0 - - 0.0
21/05:30am -4.8 -7.5 -5.6 94 0.1 CALM 0 0 0 0 - - 0.0
21/05:00am -4.4 -7.0 -5.2 94 0.1 CALM 0 0 0 0 - - 0.0
21/04:30am -4.2 -6.8 -4.9 95 0.1 CALM 0 0 0 0 - - 0.0
21/04:00am -4.2 -6.8 -5.0 94 0.1 CALM 0 0 0 0 - - 0.0
21/03:30am -3.9 -6.5 -4.6 95 0.1 CALM 0 0 0 0 - - 0.0
21/03:00am -3.8 -6.4 -4.6 94 0.1 CALM 0 0 0 0 - - 0.0
21/02:30am -3.2 -5.7 -3.9 95 0.1 CALM 0 0 0 0 - - 0.0
21/02:00am -3.2 -5.7 -3.9 95 0.1 CALM 0 0 0 0 - - 0.0
21/01:30am -3.0 -5.5 -3.8 94 0.1 CALM 0 0 0 0 - - 0.0
21/01:00am -2.2 -4.6 -2.9 95 0.1 CALM 0 2 0 1 - - 0.0
21/12:30am -2.5 -5.0 -3.6 92 0.3 CALM 0 0 0 0 - - 0.0
21/12:00am -1.4 -4.1 -2.2 94 0.2 E 2 2 1 1 - - 0.0
 
Date/Time
EST
Temp
°C
App
Temp
°C
Dew
Point
°C
Rel
Hum
%
Delta-T
°C
Wind Press
QNH
hPa
Press
MSL
hPa
Rain since
9am
mm
Dir  Spd
km/h
Gust
km/h
Spd
kts
Gust
kts
20/11:30pm -1.5 -3.9 -3.1 89 0.5 CALM 0 0 0 0 - - 0.0
20/11:00pm -0.8 -3.2 -3.0 85 0.7 CALM 0 0 0 0 - - 0.0
20/10:30pm 0.6 -2.5 -2.4 80 1.1 E 4 6 2 3 - - 0.0
20/10:00pm 0.2 -2.5 -2.8 80 1.1 E 2 6 1 3 - - 0.0
20/09:30pm 0.9 -1.8 -2.3 79 1.2 E 2 4 1 2 - - 0.0
20/09:00pm 1.7 -1.4 -2.8 72 1.6 E 4 6 2 3 - - 0.0
20/08:30pm 2.0 -0.7 -2.7 71 1.7 E 2 4 1 2 - - 0.0
20/08:00pm 3.0 0.6 -3.1 64 2.2 CALM 0 0 0 0 - - 0.0
20/07:30pm 3.8 1.4 -3.5 59 2.7 CALM 0 0 0 0 - - 0.0
20/07:00pm 6.3 3.8 -4.2 47 3.9 CALM 0 4 0 2 - - 0.0
20/06:30pm 8.6 5.4 -3.9 41 4.8 SW 4 9 2 5 - - 0.0
20/06:00pm 9.6 5.8 -4.0 38 5.3 SW 7 17 4 9 - - 0.0
20/05:30pm 10.5 6.2 -4.7 34 5.8 WSW 9 17 5 9 - - 0.0
20/05:00pm 11.3 6.6 -5.2 31 6.3 SW 11 19 6 10 - - 0.0
20/04:30pm 12.6 8.1 -3.6 32 6.5 W 11 20 6 11 - - 0.0
20/04:00pm 12.8 7.7 -4.8 29 6.9 W 13 24 7 13 - - 0.0
20/03:30pm 13.4 8.8 -3.8 30 7.0 W 11 22 6 12 - - 0.0
20/03:00pm 12.3 8.2 -3.1 34 6.3 SSW 9 13 5 7 - - 0.0
20/02:30pm 12.1 8.4 -2.9 35 6.1 SW 7 19 4 10 - - 0.0
20/02:00pm 12.2 8.5 -2.8 35 6.1 W 7 17 4 9 - - 0.0
20/01:30pm 13.6 9.6 -2.3 33 6.7 NW 9 22 5 12 - - 0.0
20/01:00pm 12.1 7.5 -4.5 31 6.5 WSW 11 19 6 10 - - 0.0
20/12:30pm 11.6 7.2 -6.3 28 6.7 WSW 9 17 5 9 - - 0.0
20/12:00pm 11.6 7.8 -5.4 30 6.5 SSW 6 15 3 8 - - 0.0
20/11:30am 11.5 7.8 -4.6 32 6.3 SSW 6 9 3 5 - - 0.0
20/11:00am 10.9 7.4 -3.2 37 5.6 SW 6 11 3 6 - - 0.0
20/10:30am 10.3 6.7 -3.4 38 5.4 WNW 6 11 3 6 - - 0.0
20/10:00am 9.3 5.8 -2.9 42 4.8 W 6 11 3 6 - - 0.0
20/09:30am 8.5 4.5 -2.1 47 4.2 SW 9 15 5 8 - - 0.0
20/09:00am 8.1 5.1 -1.7 50 3.9 NNW 4 7 2 4 - - 0.0
20/08:30am 5.9 2.9 -2.0 57 3.1 NNW 4 7 2 4 - - 0.0
20/08:00am 4.4 1.8 -1.8 64 2.4 WNW 2 6 1 3 - - 0.0
20/07:30am 1.1 -1.1 -1.8 81 1.1 CALM 0 4 0 2 - - 0.0
20/07:00am -1.9 -4.3 -3.5 89 0.5 CALM 0 0 0 0 - - 0.0
20/06:30am -3.8 -6.4 -5.0 91 0.2 CALM 0 0 0 0 - - 0.0
20/06:00am -3.7 -7.0 -4.8 92 0.2 E 4 6 2 3 - - 0.0
20/05:30am -3.5 -6.1 -4.6 92 0.2 CALM 0 2 0 1 - - 0.0
20/05:00am -3.5 -6.1 -4.9 90 0.3 CALM 0 2 0 1 - - 0.0
20/04:30am -3.3 -6.6 -4.6 91 0.3 E 4 7 2 4 - - 0.0
20/04:00am -3.4 -6.0 -4.8 90 0.3 CALM 0 7 0 4 - - 0.0
20/03:30am -2.9 -5.5 -4.6 88 0.4 CALM 0 0 0 0 - - 0.0
20/03:00am -2.1 -5.0 -4.1 86 0.6 E 2 6 1 3 - - 0.0
20/02:30am -2.1 -5.4 -4.4 84 0.7 E 4 6 2 3 - - 0.0
20/02:00am -1.6 -5.3 -4.1 83 0.8 SW 6 9 3 5 - - 0.0
20/01:30am -2.2 -4.8 -4.5 84 0.7 CALM 0 0 0 0 - - 0.0
20/01:00am -1.4 -3.9 -4.4 80 1.0 CALM 0 0 0 0 - - 0.0
20/12:30am -0.3 -3.5 -3.8 77 1.2 ESE 4 6 2 3 - - 0.0
20/12:00am -0.1 -3.3 -3.8 76 1.3 ESE 4 6 2 3 - - 0.0
 
Date/Time
EST
Temp
°C
App
Temp
°C
Dew
Point
°C
Rel
Hum
%
Delta-T
°C
Wind Press
QNH
hPa
Press
MSL
hPa
Rain since
9am
mm
Dir  Spd
km/h
Gust
km/h
Spd
kts
Gust
kts
19/11:30pm 0.3 -2.2 -4.0 73 1.5 CALM 0 0 0 0 - - 0.0
19/11:00pm 1.6 -1.0 -4.5 64 2.2 CALM 0 0 0 0 - - 0.0
19/10:30pm 4.8 1.8 -4.7 50 3.4 SSW 2 6 1 3 - - 0.0
19/10:00pm 5.3 1.7 -4.0 51 3.4 SW 6 11 3 6 - - 0.0
19/09:30pm 3.9 1.4 -3.6 58 2.7 CALM 0 0 0 0 - - 0.0
19/09:00pm 7.1 3.5 -3.4 47 4.0 SW 6 13 3 7 - - 0.0
19/08:30pm 8.3 3.8 -3.5 43 4.6 WSW 11 17 6 9 - - 0.0
19/08:00pm 8.9 5.0 -1.8 47 4.3 W 9 17 5 9 - - 0.0
19/07:30pm 8.8 5.2 -1.9 47 4.3 W 7 15 4 8 - - 0.0
19/07:00pm 9.6 6.2 -1.7 45 4.6 W 6 13 3 7 - - 0.0
19/06:30pm 10.6 6.6 -2.4 40 5.3 W 9 15 5 8 - - 0.0
19/06:00pm 11.5 7.2 -2.0 39 5.6 W 11 22 6 12 - - 0.0
19/05:30pm 12.5 7.9 -1.4 38 5.9 W 13 28 7 15 - - 0.0

Other Formats:

Comma delimited format used in spreadsheet applications
http://www.bom.gov.au/fwo/IDN60801/IDN60801.95686.axf

JavaScript Object Notation format (JSON) in row-major order
http://www.bom.gov.au/fwo/IDN60801/IDN60801.95686.json